createdAt,value
2018-03-08T00:00:57.139Z,95807.23
2018-03-08T00:04:20.409Z,95811.75
2018-03-08T00:07:43.672Z,95808.34
2018-03-08T00:11:07.010Z,95819.31
2018-03-08T00:14:31.146Z,95822.67
2018-03-08T00:17:55.284Z,95822.50
2018-03-08T00:21:18.576Z,95819.25
2018-03-08T00:24:41.923Z,95812.83
2018-03-08T00:28:05.204Z,95811.57
2018-03-08T00:31:29.270Z,95819.10
2018-03-08T00:34:52.607Z,95814.33
2018-03-08T00:38:16.735Z,95831.14
2018-03-08T00:41:40.055Z,95819.66
2018-03-08T00:45:03.424Z,95816.58
2018-03-08T00:48:27.537Z,95831.07
2018-03-08T00:51:50.887Z,95827.66
2018-03-08T00:55:14.970Z,95815.99
2018-03-08T00:58:39.036Z,95836.35
2018-03-08T01:02:02.358Z,95837.95
2018-03-08T01:05:25.746Z,95844.89
2018-03-08T01:08:49.112Z,95846.09
2018-03-08T01:12:12.484Z,95853.80
2018-03-08T01:15:36.625Z,95846.47
2018-03-08T01:18:59.905Z,95841.98
2018-03-08T01:22:24.037Z,95842.94
2018-03-08T01:25:48.088Z,95842.56
2018-03-08T01:29:11.436Z,95834.92
2018-03-08T01:32:34.740Z,95830.99
2018-03-08T01:35:58.015Z,95832.56
2018-03-08T01:39:21.323Z,95833.53
2018-03-08T01:42:44.659Z,95843.52
2018-03-08T01:46:08.034Z,95841.98
2018-03-08T01:49:32.130Z,95837.47
2018-03-08T01:52:56.191Z,95838.31
2018-03-08T01:56:19.448Z,95840.88
2018-03-08T01:59:42.710Z,95847.63
2018-03-08T02:03:06.826Z,95844.84
2018-03-08T02:06:30.108Z,95852.46
2018-03-08T02:09:54.240Z,95851.54
2018-03-08T02:13:17.599Z,95859.82
2018-03-08T02:16:40.978Z,95854.57
2018-03-08T02:20:04.345Z,95865.79
2018-03-08T02:23:27.715Z,95860.78
2018-03-08T02:26:50.988Z,95864.55
2018-03-08T02:30:15.119Z,95865.16
2018-03-08T02:33:38.400Z,95867.34
2018-03-08T02:37:02.473Z,95867.42
2018-03-08T02:40:25.846Z,95864.83
2018-03-08T02:43:49.982Z,95874.59
2018-03-08T02:47:13.353Z,95875.77
2018-03-08T02:50:36.722Z,95879.61
2018-03-08T02:53:59.988Z,95890.73
2018-03-08T02:57:24.050Z,95890.84
2018-03-08T03:00:47.356Z,95884.00
2018-03-08T03:04:11.406Z,95886.54
2018-03-08T03:07:35.482Z,95897.05
2018-03-08T03:10:59.532Z,95892.86
2018-03-08T03:14:22.837Z,95892.63
2018-03-08T03:17:46.881Z,95887.38
2018-03-08T03:21:10.906Z,95889.55
2018-03-08T03:24:35.037Z,95893.50
2018-03-08T03:27:58.405Z,95901.06
2018-03-08T03:31:21.748Z,95889.94
2018-03-08T03:34:45.772Z,95886.67
2018-03-08T03:38:09.856Z,95882.78
2018-03-08T03:41:33.900Z,95886.19
2018-03-08T03:44:57.918Z,95884.08
2018-03-08T03:48:21.292Z,95887.97
2018-03-08T03:51:44.587Z,95897.80
2018-03-08T03:55:07.894Z,95886.98
2018-03-08T03:58:31.955Z,95885.51
2018-03-08T04:01:55.242Z,95887.09
2018-03-08T04:05:19.371Z,95885.31
2018-03-08T04:08:42.648Z,95884.36
2018-03-08T04:12:06.736Z,95878.09
2018-03-08T04:15:30.868Z,95874.80
2018-03-08T04:18:54.151Z,95871.15
2018-03-08T04:22:18.179Z,95873.08
2018-03-08T04:25:42.262Z,95876.93
2018-03-08T04:29:06.304Z,95879.94
2018-03-08T04:32:30.345Z,95881.36
2018-03-08T04:35:54.384Z,95882.27
2018-03-08T04:39:17.736Z,95879.42
2018-03-08T04:42:41.776Z,95882.95
2018-03-08T04:46:05.907Z,95881.31
2018-03-08T04:49:29.183Z,95881.41
2018-03-08T04:52:53.265Z,95887.08
2018-03-08T04:56:16.628Z,95884.19
2018-03-08T04:59:39.968Z,95892.22
2018-03-08T05:03:04.035Z,95891.63
2018-03-08T05:06:27.408Z,95901.84
2018-03-08T05:09:50.809Z,95906.09
2018-03-08T05:13:14.069Z,95897.45
2018-03-08T05:16:37.467Z,95897.01
2018-03-08T05:20:00.768Z,95893.83
2018-03-08T05:23:24.111Z,95898.09
2018-03-08T05:26:48.206Z,95897.36
2018-03-08T05:30:12.489Z,95894.99
2018-03-08T05:33:36.626Z,95891.04
2018-03-08T05:37:00.779Z,95899.09
2018-03-08T05:40:24.283Z,95902.17
2018-03-08T05:43:47.658Z,95905.28
2018-03-08T05:47:15.402Z,95907.53
2018-03-08T05:50:39.529Z,95901.75
2018-03-08T05:54:03.938Z,95907.93
2018-03-08T05:57:27.474Z,95901.91
2018-03-08T06:00:52.206Z,95901.37
2018-03-08T06:04:16.332Z,95909.92
2018-03-08T06:07:40.571Z,95901.36
2018-03-08T06:11:04.709Z,95910.17
2018-03-08T06:14:28.890Z,95911.30
2018-03-08T06:17:53.002Z,95912.59
2018-03-08T06:21:16.434Z,95920.51
2018-03-08T06:24:39.743Z,95917.97
2018-03-08T06:28:04.466Z,95916.27
2018-03-08T06:31:27.816Z,95920.55
2018-03-08T06:34:56.877Z,95921.05
2018-03-08T06:38:26.702Z,95923.93
2018-03-08T06:41:52.935Z,95924.38
2018-03-08T06:45:16.273Z,95921.17
2018-03-08T06:48:39.648Z,95924.58
2018-03-08T06:52:03.053Z,95917.83
2018-03-08T06:55:27.102Z,95931.41
2018-03-08T06:58:50.469Z,95925.67
2018-03-08T07:02:14.524Z,95924.35
2018-03-08T07:05:38.579Z,95926.86
2018-03-08T07:09:01.965Z,95922.30
2018-03-08T07:12:25.499Z,95930.04
2018-03-08T07:15:49.573Z,95930.00
2018-03-08T07:19:13.667Z,95931.64
2018-03-08T07:22:36.942Z,95927.83
2018-03-08T07:26:01.066Z,95927.23
2018-03-08T07:29:24.334Z,95933.08
2018-03-08T07:32:47.607Z,95930.72
2018-03-08T07:36:11.664Z,95934.89
2018-03-08T07:39:34.917Z,95930.91
2018-03-08T07:42:59.046Z,95939.80
2018-03-08T07:46:22.368Z,95934.86
2018-03-08T07:49:45.718Z,95927.30
2018-03-08T07:53:09.054Z,95933.20
2018-03-08T07:56:32.398Z,95929.13
2018-03-08T07:59:56.512Z,95927.26
2018-03-08T08:03:20.556Z,95927.36
2018-03-08T08:07:01.730Z,95936.33
2018-03-08T08:10:25.041Z,95934.38
2018-03-08T08:13:48.445Z,95929.19
2018-03-08T08:17:11.790Z,95928.10
2018-03-08T08:20:35.064Z,95921.98
2018-03-08T08:23:59.112Z,95918.70
2018-03-08T08:27:23.370Z,95917.45
2018-03-08T08:30:46.709Z,95921.61
2018-03-08T08:34:10.807Z,95928.64
2018-03-08T08:37:34.832Z,95932.43
2018-03-08T08:40:58.258Z,95924.26
2018-03-08T08:44:22.303Z,95920.52
2018-03-08T08:47:46.379Z,95923.45
2018-03-08T08:51:10.054Z,95920.36
2018-03-08T08:54:33.428Z,95918.92
2018-03-08T08:57:56.753Z,95922.64
2018-03-08T09:01:20.822Z,95917.31
2018-03-08T09:04:44.120Z,95916.34
2018-03-08T09:08:08.160Z,95911.31
2018-03-08T09:11:32.281Z,95909.21
2018-03-08T09:14:56.362Z,95908.87
2018-03-08T09:18:20.454Z,95906.17
2018-03-08T09:21:44.589Z,95914.98
2018-03-08T09:25:08.058Z,95909.89
2018-03-08T09:28:31.328Z,95912.59
2018-03-08T09:31:54.596Z,95906.45
2018-03-08T09:35:18.632Z,95896.10
2018-03-08T09:38:41.892Z,95898.91
2018-03-08T09:42:05.200Z,95908.97
2018-03-08T09:45:28.525Z,95906.70
2018-03-08T09:48:51.796Z,95903.81
2018-03-08T09:52:15.122Z,95905.83
2018-03-08T09:55:38.442Z,95907.23
2018-03-08T09:59:01.799Z,95907.25
2018-03-08T10:02:25.850Z,95900.31
2018-03-08T10:05:49.176Z,95901.18
2018-03-08T10:09:13.220Z,95900.48
2018-03-08T10:12:37.267Z,95894.98
2018-03-08T10:16:01.389Z,95889.42
2018-03-08T10:19:25.519Z,95881.81
2018-03-08T10:22:49.308Z,95885.34
2018-03-08T10:26:13.349Z,95888.82
2018-03-08T10:29:37.390Z,95880.36
2018-03-08T10:33:01.439Z,95883.94
2018-03-08T10:36:24.745Z,95873.58
2018-03-08T10:39:48.863Z,95869.82
2018-03-08T10:43:12.134Z,95860.37
2018-03-08T10:46:36.172Z,95852.60
2018-03-08T10:50:00.210Z,95843.12
2018-03-08T10:53:24.339Z,95840.84
2018-03-08T10:56:47.611Z,95841.22
2018-03-08T11:00:10.951Z,95842.25
2018-03-08T11:03:39.879Z,95844.36
2018-03-08T11:07:03.246Z,95842.56
2018-03-08T11:10:26.616Z,95846.59
2018-03-08T11:13:49.884Z,95853.91
2018-03-08T11:17:13.147Z,95861.63
2018-03-08T11:20:36.425Z,95851.42
2018-03-08T11:24:00.489Z,95852.63
2018-03-08T11:27:23.829Z,95846.07
2018-03-08T11:30:47.148Z,95848.98
2018-03-08T11:34:10.419Z,95845.56
2018-03-08T11:37:33.697Z,95832.01
2018-03-08T11:40:57.822Z,95822.83
2018-03-08T11:44:21.143Z,95815.86
2018-03-08T11:47:44.459Z,95818.97
2018-03-08T11:51:08.502Z,95818.00
2018-03-08T11:54:32.581Z,95811.05
2018-03-08T11:57:55.862Z,95801.87
2018-03-08T12:01:19.878Z,95799.83
2018-03-08T12:04:43.258Z,95791.27
2018-03-08T12:08:06.534Z,95792.50
2018-03-08T12:11:30.575Z,95788.22
2018-03-08T12:14:54.700Z,95794.30
2018-03-08T12:18:18.074Z,95795.67
2018-03-08T12:21:42.192Z,95791.33
2018-03-08T12:25:05.534Z,95789.72
2018-03-08T12:28:29.569Z,95788.56
2018-03-08T12:31:53.624Z,95786.80
2018-03-08T12:35:16.934Z,95766.95
2018-03-08T12:38:41.055Z,95764.98
2018-03-08T12:42:05.192Z,95753.99
2018-03-08T12:45:28.448Z,95752.89
2018-03-08T12:48:51.862Z,95749.39
2018-03-08T12:52:15.886Z,95748.45
2018-03-08T12:55:39.932Z,95742.88
2018-03-08T12:59:03.315Z,95737.81
2018-03-08T13:02:27.417Z,95729.19
2018-03-08T13:05:50.786Z,95724.45
2018-03-08T13:09:14.922Z,95721.67
2018-03-08T13:12:38.292Z,95719.30
2018-03-08T13:16:01.573Z,95715.89
2018-03-08T13:19:25.646Z,95715.77
2018-03-08T13:22:48.924Z,95712.56
2018-03-08T13:26:13.053Z,95703.11
2018-03-08T13:29:36.421Z,95711.70
2018-03-08T13:32:59.717Z,95714.51
2018-03-08T13:36:22.989Z,95703.63
2018-03-08T13:39:46.285Z,95699.22
2018-03-08T13:43:10.393Z,95703.22
2018-03-08T13:46:33.735Z,95701.63
2018-03-08T13:49:57.799Z,95692.60
2018-03-08T13:53:21.143Z,95692.39
2018-03-08T13:56:44.451Z,95684.42
2018-03-08T14:00:07.729Z,95680.60
2018-03-08T14:03:31.866Z,95685.27
2018-03-08T14:06:55.247Z,95677.53
2018-03-08T14:10:19.376Z,95673.06
2018-03-08T14:13:43.506Z,95670.17
2018-03-08T14:17:06.880Z,95668.59
2018-03-08T14:20:30.188Z,95658.20
2018-03-08T14:23:53.469Z,95658.17
2018-03-08T14:27:16.749Z,95664.31
2018-03-08T14:30:40.805Z,95660.23
2018-03-08T14:34:04.111Z,95658.60
2018-03-08T14:37:27.424Z,95655.67
2018-03-08T14:40:51.501Z,95646.87
2018-03-08T14:44:14.836Z,95640.13
2018-03-08T14:47:38.958Z,95646.45
2018-03-08T14:51:02.242Z,95648.39
2018-03-08T14:54:26.369Z,95633.33
2018-03-08T14:57:50.657Z,95637.52
2018-03-08T15:01:14.527Z,95639.22
2018-03-08T15:04:37.923Z,95629.91
2018-03-08T15:08:02.496Z,95627.77
2018-03-08T15:11:25.880Z,95617.11
2018-03-08T15:14:49.148Z,95620.05
2018-03-08T15:18:13.234Z,95610.45
2018-03-08T15:21:36.533Z,95616.19
2018-03-08T15:25:01.117Z,95611.20
2018-03-08T15:28:24.423Z,95618.98
2018-03-08T15:31:47.735Z,95613.91
2018-03-08T15:35:12.557Z,95608.89
2018-03-08T15:38:35.909Z,95604.16
2018-03-08T15:41:59.279Z,95600.36
2018-03-08T15:45:22.643Z,95601.44
2018-03-08T15:48:45.971Z,95599.31
2018-03-08T15:52:10.068Z,95605.78
2018-03-08T15:55:34.159Z,95605.46
2018-03-08T15:58:58.235Z,95610.89
2018-03-08T16:02:25.508Z,95615.12
2018-03-08T16:05:49.689Z,95620.90
2018-03-08T16:13:02.517Z,95617.95
2018-03-08T16:16:25.816Z,95622.09
2018-03-08T16:19:49.903Z,95623.27
2018-03-08T16:23:14.019Z,95622.22
2018-03-08T16:26:37.305Z,95626.23
2018-03-08T16:30:01.360Z,95619.95
2018-03-08T16:33:24.742Z,95627.47
2018-03-08T16:36:49.017Z,95621.98
2018-03-08T16:40:12.378Z,95621.38
2018-03-08T16:43:36.502Z,95631.95
2018-03-08T16:47:00.884Z,95628.58
2018-03-08T16:50:24.224Z,95624.92
2018-03-08T16:53:47.511Z,95625.66
2018-03-08T16:57:10.861Z,95632.28
2018-03-08T17:00:35.035Z,95637.79
2018-03-08T17:03:59.188Z,95632.55
2018-03-08T17:07:22.576Z,95642.19
2018-03-08T17:10:46.745Z,95641.70
2018-03-08T17:14:10.881Z,95642.59
2018-03-08T17:17:35.325Z,95648.22
2018-03-08T17:20:59.167Z,95650.73
2018-03-08T17:24:23.512Z,95654.46
2018-03-08T17:27:47.814Z,95660.22
2018-03-08T17:31:12.120Z,95663.24
2018-03-08T17:34:35.563Z,95666.33
2018-03-08T17:38:00.591Z,95675.48
2018-03-08T17:41:25.724Z,95687.33
2018-03-08T17:44:49.819Z,95685.78
2018-03-08T17:48:14.059Z,95692.63
2018-03-08T17:51:37.424Z,95702.93
2018-03-08T17:55:01.643Z,95707.38
2018-03-08T17:58:24.979Z,95709.02
2018-03-08T18:01:49.088Z,95712.89
2018-03-08T18:05:13.153Z,95726.59
2018-03-08T18:08:36.535Z,95724.82
2018-03-08T18:12:00.723Z,95725.45
2018-03-08T18:15:24.812Z,95733.42
2018-03-08T18:18:48.946Z,95730.73
2018-03-08T18:22:13.038Z,95730.59
2018-03-08T18:25:36.373Z,95741.38
2018-03-08T18:28:59.669Z,95730.31
2018-03-08T18:32:22.934Z,95741.52
2018-03-08T18:35:46.309Z,95745.89
2018-03-08T18:39:09.580Z,95750.16
2018-03-08T18:42:32.887Z,95757.70
2018-03-08T18:45:56.175Z,95751.66
2018-03-08T18:49:20.301Z,95759.55
2018-03-08T18:52:43.573Z,95766.48
2018-03-08T18:56:06.907Z,95764.28
2018-03-08T18:59:30.975Z,95767.41
2018-03-08T19:02:54.245Z,95767.57
2018-03-08T19:06:17.580Z,95771.33
2018-03-08T19:09:41.698Z,95780.64
2018-03-08T19:13:05.100Z,95773.23
2018-03-08T19:16:29.125Z,95777.28
2018-03-08T19:19:53.216Z,95777.64
2018-03-08T19:23:17.248Z,95782.28
2018-03-08T19:26:41.268Z,95787.34
2018-03-08T19:30:05.400Z,95792.28
2018-03-08T19:33:28.741Z,95789.94
2018-03-08T19:36:52.811Z,95801.69
2018-03-08T19:40:16.183Z,95808.27
2018-03-08T19:43:39.530Z,95801.95
2018-03-08T19:47:02.820Z,95803.84
2018-03-08T19:50:27.007Z,95804.23
2018-03-08T19:53:50.330Z,95814.52
2018-03-08T19:57:13.696Z,95814.70
2018-03-08T20:00:37.067Z,95811.48
2018-03-08T20:04:00.350Z,95806.83
2018-03-08T20:07:24.437Z,95805.62
2018-03-08T20:10:48.510Z,95809.56
2018-03-08T20:14:11.799Z,95815.07
2018-03-08T20:17:35.111Z,95822.16
2018-03-08T20:20:59.164Z,95829.09
2018-03-08T20:24:22.464Z,95829.59
2018-03-08T20:27:46.591Z,95845.95
2018-03-08T20:31:09.965Z,95839.22
2018-03-08T20:34:34.049Z,95850.43
2018-03-08T20:37:57.416Z,95857.27
2018-03-08T20:41:20.809Z,95858.95
2018-03-08T20:44:44.845Z,95860.05
2018-03-08T20:48:08.921Z,95856.28
2018-03-08T20:51:33.052Z,95857.08
2018-03-08T20:54:56.382Z,95863.54
2018-03-08T20:58:20.432Z,95872.88
2018-03-08T21:01:43.781Z,95874.45
2018-03-08T21:05:07.909Z,95879.72
2018-03-08T21:08:31.229Z,95878.78
2018-03-08T21:11:54.527Z,95879.13
2018-03-08T21:15:18.597Z,95885.83
2018-03-08T21:18:42.704Z,95882.76
2018-03-08T21:22:06.046Z,95885.97
2018-03-08T21:25:29.422Z,95880.98
2018-03-08T21:28:53.474Z,95888.66
2018-03-08T21:32:16.785Z,95877.91
2018-03-08T21:35:40.834Z,95883.53
2018-03-08T21:39:04.180Z,95909.77
2018-03-08T21:42:27.460Z,95910.99
2018-03-08T21:45:53.019Z,95915.92
2018-03-08T21:49:16.389Z,95918.67
2018-03-08T21:52:40.524Z,95912.17
2018-03-08T21:56:03.846Z,95910.08
2018-03-08T21:59:27.163Z,95925.03
2018-03-08T22:02:50.479Z,95925.48
2018-03-08T22:06:13.849Z,95915.91
2018-03-08T22:09:37.259Z,95931.53
2018-03-08T22:13:00.630Z,95928.03
2018-03-08T22:16:23.959Z,95938.77
2018-03-08T22:19:47.330Z,95940.69
2018-03-08T22:23:11.435Z,95953.34
2018-03-08T22:26:35.524Z,95945.69
2018-03-08T22:30:00.333Z,95955.19
2018-03-08T22:33:23.681Z,95958.70
2018-03-08T22:36:47.780Z,95956.48
2018-03-08T22:40:11.904Z,95942.78
2018-03-08T22:43:35.201Z,95959.13
2018-03-08T22:46:58.505Z,95934.66
2018-03-08T22:50:22.561Z,95959.98
2018-03-08T22:53:45.840Z,95965.69
2018-03-08T22:57:09.168Z,95965.45
2018-03-08T23:00:32.488Z,95952.77
2018-03-08T23:03:56.227Z,95958.59
2018-03-08T23:07:20.506Z,95962.56
2018-03-08T23:10:43.880Z,95949.06
2018-03-08T23:14:07.250Z,95947.63
2018-03-08T23:17:30.685Z,95962.44
2018-03-08T23:20:54.804Z,95966.34
2018-03-08T23:24:19.410Z,95976.54
2018-03-08T23:27:43.491Z,95960.08
2018-03-08T23:31:07.565Z,95948.82
2018-03-08T23:34:30.869Z,95978.83
2018-03-08T23:37:54.932Z,95974.47
2018-03-08T23:41:18.270Z,95984.37
2018-03-08T23:44:42.413Z,95986.42
2018-03-08T23:48:06.451Z,95983.48
2018-03-08T23:51:29.792Z,95978.38
2018-03-08T23:54:53.127Z,95981.59
2018-03-08T23:58:17.265Z,95984.52
